Time;durP1;ratioP1;P1;durP2;ratioP2;P2;SDS_P1;SDS_P2;PMS_P1;PMS_P2;Temp;Humidity;BMP_temperature;BMP_pressure;BME280_temperature;BME280_humidity;BME280_pressure;Samples;Min_cycle;Max_cycle;Signal;HPM_P1;HPM_P2
2023/09/17 00:00:39;;;;;;;9.75;5.95;;;24.00;99.90;;;;;;10087123;28;20033;-70
2023/09/17 00:05:33;;;;;;;11.35;7.40;;;23.90;99.90;;;;;;10090060;28;20540;-71
2023/09/17 00:10:24;;;;;;;9.37;7.23;;;23.80;99.90;;;;;;10096942;28;20056;-71
2023/09/17 00:15:14;;;;;;;13.15;8.60;;;23.70;99.90;;;;;;10099736;28;20025;-71
2023/09/17 00:20:10;;;;;;;10.68;5.88;;;23.70;99.90;;;;;;10099406;28;20081;-71
2023/09/17 00:25:01;;;;;;;8.75;6.03;;;23.60;99.90;;;;;;10083187;28;20059;-71
2023/09/17 00:29:51;;;;;;;8.60;5.85;;;23.60;99.90;;;;;;10090780;28;20479;-72
2023/09/17 00:34:42;;;;;;;9.43;6.20;;;23.60;99.90;;;;;;10090838;28;20029;-71
2023/09/17 00:39:33;;;;;;;6.18;5.15;;;23.70;99.90;;;;;;10090616;28;20029;-71
2023/09/17 00:44:23;;;;;;;8.23;5.70;;;23.60;99.90;;;;;;10086418;28;20434;-70
2023/09/17 00:49:15;;;;;;;7.57;5.20;;;23.60;99.90;;;;;;10108636;28;20138;-71
2023/09/17 00:54:07;;;;;;;7.13;5.75;;;23.60;99.90;;;;;;10104831;22;20503;-68
2023/09/17 00:58:59;;;;;;;7.50;5.07;;;23.60;99.90;;;;;;10097349;28;20556;-68
2023/09/17 01:03:50;;;;;;;8.10;5.10;;;23.50;99.90;;;;;;10098918;28;20033;-69
2023/09/17 01:08:41;;;;;;;6.38;4.47;;;23.50;99.90;;;;;;10091258;28;20513;-68
2023/09/17 01:13:34;;;;;;;7.63;5.10;;;23.40;99.90;;;;;;10085913;28;20028;-69
2023/09/17 01:18:27;;;;;;;7.32;5.07;;;23.50;99.90;;;;;;10096064;28;20502;-70
2023/09/17 01:23:30;;;;;;;10.95;5.47;;;23.50;99.90;;;;;;10098574;28;20025;-69
2023/09/17 01:28:22;;;;;;;9.43;5.57;;;23.40;99.90;;;;;;10097970;28;20028;-69
2023/09/17 01:33:12;;;;;;;7.97;5.38;;;23.40;99.90;;;;;;10098057;28;20032;-70
2023/09/17 01:38:06;;;;;;;7.53;5.53;;;23.40;99.90;;;;;;10093457;28;20036;-69
2023/09/17 01:42:57;;;;;;;8.48;5.65;;;23.40;99.90;;;;;;10088333;28;20025;-69
2023/09/17 01:47:49;;;;;;;7.10;5.38;;;23.30;99.90;;;;;;10087679;28;20036;-69
2023/09/17 01:52:40;;;;;;;7.78;5.28;;;23.20;99.90;;;;;;10073747;28;20103;-69
2023/09/17 01:57:31;;;;;;;7.53;5.60;;;23.20;99.90;;;;;;10092739;28;20021;-68
2023/09/17 02:02:22;;;;;;;7.03;5.90;;;23.30;99.90;;;;;;10087165;28;20019;-68
2023/09/17 02:07:15;;;;;;;6.40;4.85;;;23.20;99.90;;;;;;10096195;28;20040;-69
2023/09/17 02:12:05;;;;;;;7.82;5.18;;;23.20;99.90;;;;;;10087343;28;20013;-68
2023/09/17 02:16:56;;;;;;;9.20;5.43;;;23.10;99.90;;;;;;10094403;28;20029;-69
2023/09/17 02:21:46;;;;;;;7.88;5.40;;;23.10;99.90;;;;;;10080529;28;20025;-70
2023/09/17 02:26:37;;;;;;;7.55;5.13;;;23.10;99.90;;;;;;10092928;28;20135;-69
2023/09/17 02:31:28;;;;;;;7.80;5.05;;;23.10;99.90;;;;;;10089147;28;20036;-68
2023/09/17 02:36:18;;;;;;;6.85;4.68;;;23.00;99.90;;;;;;10082983;28;20038;-68
2023/09/17 02:41:09;;;;;;;7.25;5.10;;;23.00;99.90;;;;;;10083593;28;20020;-68
2023/09/17 02:46:00;;;;;;;8.27;4.55;;;23.10;99.90;;;;;;10097635;28;20037;-68
2023/09/17 02:50:50;;;;;;;7.93;4.78;;;23.00;99.90;;;;;;10093062;28;20029;-68
2023/09/17 02:55:41;;;;;;;6.72;4.65;;;23.00;99.90;;;;;;10103230;28;20040;-68
2023/09/17 03:00:34;;;;;;;8.35;5.35;;;23.00;99.90;;;;;;10102528;28;20029;-68
2023/09/17 03:05:25;;;;;;;8.35;5.70;;;23.00;99.90;;;;;;10101435;28;20036;-69
2023/09/17 03:10:18;;;;;;;8.25;5.55;;;22.90;99.90;;;;;;10098571;28;20380;-70
2023/09/17 03:15:09;;;;;;;6.82;4.82;;;22.80;99.90;;;;;;10100390;28;20040;-69
2023/09/17 03:20:00;;;;;;;7.57;5.40;;;22.80;99.90;;;;;;10099846;28;20495;-70
2023/09/17 03:24:56;;;;;;;7.18;4.97;;;22.80;99.90;;;;;;10102066;28;20033;-69
2023/09/17 03:29:46;;;;;;;5.78;4.32;;;22.80;99.90;;;;;;10101209;28;20083;-70
2023/09/17 03:34:37;;;;;;;6.97;5.00;;;22.80;99.90;;;;;;10096760;28;20075;-70
2023/09/17 03:39:28;;;;;;;7.25;4.50;;;22.80;99.90;;;;;;10098469;28;20429;-69
2023/09/17 03:44:20;;;;;;;7.47;4.45;;;22.70;99.90;;;;;;10090445;28;20135;-69
2023/09/17 03:49:10;;;;;;;6.68;4.15;;;22.70;99.90;;;;;;10089380;28;20599;-68
2023/09/17 03:54:01;;;;;;;7.55;4.35;;;22.60;99.90;;;;;;10092970;28;20148;-69
2023/09/17 03:58:53;;;;;;;5.72;3.95;;;22.60;99.90;;;;;;10098825;28;20024;-70
2023/09/17 04:03:44;;;;;;;10.38;4.80;;;22.50;99.90;;;;;;10095371;28;20055;-69
2023/09/17 04:08:35;;;;;;;7.30;3.97;;;22.60;99.90;;;;;;10094185;28;20659;-68
2023/09/17 04:13:29;;;;;;;7.32;3.97;;;22.50;99.90;;;;;;10086838;28;20232;-68
2023/09/17 04:18:19;;;;;;;4.78;3.67;;;22.50;99.90;;;;;;10091773;28;20495;-69
2023/09/17 04:23:10;;;;;;;4.90;3.83;;;22.50;99.90;;;;;;10082423;28;20097;-70
2023/09/17 04:28:02;;;;;;;4.65;3.47;;;22.50;99.90;;;;;;10090457;28;20044;-68
2023/09/17 04:32:54;;;;;;;6.28;4.32;;;22.40;99.90;;;;;;10089621;28;20021;-68
2023/09/17 04:37:47;;;;;;;6.18;3.83;;;22.30;99.90;;;;;;10086405;28;20028;-68
2023/09/17 04:42:38;;;;;;;5.68;3.67;;;22.20;99.90;;;;;;10096656;28;20639;-68
2023/09/17 04:47:29;;;;;;;6.68;4.35;;;22.30;99.90;;;;;;10096285;28;20025;-68
2023/09/17 04:52:20;;;;;;;7.57;4.90;;;22.30;99.90;;;;;;10089466;28;20107;-67
2023/09/17 04:57:11;;;;;;;7.13;4.07;;;22.30;99.90;;;;;;10085966;28;20099;-71
2023/09/17 05:02:01;;;;;;;6.15;3.83;;;22.30;99.90;;;;;;10092439;28;20380;-70
2023/09/17 05:06:52;;;;;;;9.27;4.65;;;22.30;99.90;;;;;;10090180;28;20086;-73
2023/09/17 05:11:43;;;;;;;10.20;4.57;;;22.20;99.90;;;;;;10092454;28;20491;-72
2023/09/17 05:16:34;;;;;;;6.72;4.15;;;22.20;99.90;;;;;;10089402;28;20033;-71
2023/09/17 05:21:24;;;;;;;6.28;4.60;;;22.10;99.90;;;;;;10091152;28;20038;-71
2023/09/17 05:26:15;;;;;;;8.48;4.30;;;22.20;99.90;;;;;;10081307;28;20043;-71
2023/09/17 05:31:06;;;;;;;6.32;4.13;;;22.20;99.90;;;;;;10088665;28;20017;-68
2023/09/17 05:35:57;;;;;;;6.22;4.35;;;22.20;99.90;;;;;;10081644;28;20093;-68
2023/09/17 05:40:47;;;;;;;6.20;3.95;;;22.10;99.90;;;;;;10067124;28;20036;-69
2023/09/17 05:45:39;;;;;;;6.22;4.28;;;22.10;99.90;;;;;;10096115;28;20029;-70
2023/09/17 05:50:29;;;;;;;8.82;5.10;;;22.10;99.90;;;;;;10084456;28;20379;-70
2023/09/17 05:55:20;;;;;;;6.63;4.82;;;22.20;99.90;;;;;;10092260;28;20041;-71
2023/09/17 06:00:11;;;;;;;8.45;3.92;;;22.20;99.90;;;;;;10080706;28;20169;-72
2023/09/17 06:05:03;;;;;;;7.53;4.22;;;22.20;99.90;;;;;;10074056;28;20017;-67
2023/09/17 06:09:53;;;;;;;5.40;3.90;;;22.30;99.90;;;;;;10073875;28;20032;-71
2023/09/17 06:14:44;;;;;;;6.85;3.88;;;22.20;99.90;;;;;;10094028;28;20021;-68
2023/09/17 06:19:37;;;;;;;7.38;4.32;;;22.20;99.90;;;;;;10083981;28;20021;-69
2023/09/17 06:24:28;;;;;;;6.05;3.75;;;22.20;99.90;;;;;;10084783;28;20055;-68
2023/09/17 06:29:18;;;;;;;5.75;3.72;;;22.20;99.90;;;;;;10091102;28;20068;-68
2023/09/17 06:34:09;;;;;;;6.57;4.95;;;22.20;99.90;;;;;;10079728;28;20025;-69
2023/09/17 06:39:00;;;;;;;8.05;4.68;;;22.30;99.90;;;;;;10073164;28;20116;-68
2023/09/17 06:43:51;;;;;;;9.23;4.97;;;22.30;99.90;;;;;;10104991;28;20530;-68
2023/09/17 06:48:42;;;;;;;5.47;4.03;;;22.30;99.90;;;;;;10096508;28;20120;-69
2023/09/17 06:53:32;;;;;;;6.32;4.13;;;22.30;99.90;;;;;;10095820;28;20064;-68
2023/09/17 06:58:23;;;;;;;4.50;3.80;;;22.30;99.90;;;;;;10094035;28;20060;-69
2023/09/17 07:03:14;;;;;;;5.70;3.97;;;22.40;99.90;;;;;;10102873;23;20053;-70
2023/09/17 07:08:04;;;;;;;5.07;4.38;;;22.50;99.90;;;;;;10095489;28;20064;-70
2023/09/17 07:12:55;;;;;;;6.97;3.38;;;22.60;99.90;;;;;;10095011;28;20395;-70
2023/09/17 07:17:46;;;;;;;5.25;3.65;;;22.70;99.90;;;;;;10081202;28;20032;-70
2023/09/17 07:22:36;;;;;;;5.78;3.40;;;22.70;99.90;;;;;;10091705;28;20040;-70
2023/09/17 07:27:29;;;;;;;5.28;3.28;;;22.70;99.90;;;;;;10092954;28;20036;-71
2023/09/17 07:32:20;;;;;;;4.50;3.03;;;22.70;99.90;;;;;;10094199;28;20029;-70
2023/09/17 07:37:11;;;;;;;4.18;3.13;;;22.70;99.90;;;;;;10096621;28;20049;-71
2023/09/17 07:42:02;;;;;;;5.60;3.88;;;22.80;99.90;;;;;;10100965;28;20036;-70
2023/09/17 07:46:52;;;;;;;8.23;4.40;;;22.90;99.90;;;;;;10101310;28;20037;-71
2023/09/17 07:51:43;;;;;;;5.95;3.40;;;22.90;99.90;;;;;;10101394;28;20553;-70
2023/09/17 07:56:34;;;;;;;5.35;3.22;;;23.10;99.90;;;;;;10101474;28;20090;-70
2023/09/17 08:01:25;;;;;;;6.00;3.10;;;23.00;99.90;;;;;;10100829;28;20144;-70
2023/09/17 08:06:15;;;;;;;6.43;3.58;;;23.00;99.90;;;;;;10099355;28;20037;-70
2023/09/17 08:11:07;;;;;;;4.30;3.00;;;23.10;99.90;;;;;;10088025;28;20447;-70
2023/09/17 08:15:57;;;;;;;5.60;3.42;;;23.20;99.90;;;;;;10086148;28;20036;-71
2023/09/17 08:20:48;;;;;;;5.40;3.03;;;23.20;99.90;;;;;;10096780;28;20037;-70
2023/09/17 08:25:38;;;;;;;6.10;3.20;;;23.20;99.90;;;;;;10076837;28;20379;-70
2023/09/17 08:30:29;;;;;;;5.10;2.70;;;23.30;99.90;;;;;;10097917;28;20036;-69
2023/09/17 08:35:20;;;;;;;5.35;3.72;;;23.30;99.90;;;;;;10097194;28;20498;-71
2023/09/17 08:40:17;;;;;;;7.32;3.30;;;23.40;99.90;;;;;;10088661;28;20127;-70
2023/09/17 08:45:09;;;;;;;6.25;3.53;;;23.40;99.90;;;;;;10089815;28;20381;-70
2023/09/17 08:50:01;;;;;;;6.07;3.08;;;23.50;99.90;;;;;;10082418;28;20029;-70
2023/09/17 08:54:53;;;;;;;5.57;3.13;;;23.50;99.90;;;;;;10083688;28;20402;-73
2023/09/17 08:59:48;;;;;;;3.70;3.15;;;23.60;99.90;;;;;;10094409;28;20112;-70
2023/09/17 09:04:40;;;;;;;5.25;3.03;;;23.70;99.90;;;;;;10098975;28;20493;-70
2023/09/17 09:09:31;;;;;;;3.58;2.75;;;23.70;99.90;;;;;;10082997;28;20462;-71
2023/09/17 09:14:22;;;;;;;5.10;3.22;;;23.70;99.90;;;;;;10091128;28;20021;-70
2023/09/17 09:19:12;;;;;;;5.03;2.65;;;23.70;99.90;;;;;;10089208;28;20438;-70
2023/09/17 09:24:04;;;;;;;3.90;2.78;;;23.80;99.90;;;;;;10076302;28;20099;-70
2023/09/17 09:28:55;;;;;;;6.03;2.80;;;23.80;99.90;;;;;;10088922;28;20129;-71
2023/09/17 09:33:48;;;;;;;5.10;2.55;;;23.90;99.90;;;;;;10090767;28;20101;-70
2023/09/17 09:38:39;;;;;;;5.97;2.55;;;24.00;99.90;;;;;;10079688;28;20087;-71
2023/09/17 09:43:31;;;;;;;5.88;2.80;;;24.10;99.90;;;;;;10089374;28;20021;-70
2023/09/17 09:48:25;;;;;;;3.22;2.92;;;24.10;99.90;;;;;;10072489;28;20062;-71
2023/09/17 09:53:16;;;;;;;4.40;2.35;;;24.20;99.90;;;;;;10078452;28;20018;-70
2023/09/17 09:58:09;;;;;;;3.08;2.33;;;24.20;99.90;;;;;;10090759;28;20030;-70
2023/09/17 10:03:00;;;;;;;4.03;2.30;;;24.30;99.90;;;;;;10091739;28;20678;-71
2023/09/17 10:07:51;;;;;;;7.95;3.13;;;24.30;99.90;;;;;;10089738;28;20328;-71
2023/09/17 10:12:42;;;;;;;6.03;2.85;;;24.30;99.90;;;;;;10083658;28;20151;-70
2023/09/17 10:17:36;;;;;;;4.70;2.70;;;24.40;99.90;;;;;;10080148;28;20029;-70
2023/09/17 10:22:27;;;;;;;8.10;5.00;;;24.50;99.90;;;;;;10080676;28;20033;-71
2023/09/17 10:27:20;;;;;;;9.35;4.20;;;24.60;99.90;;;;;;10081364;28;20045;-71
2023/09/17 10:32:11;;;;;;;5.68;3.20;;;24.60;99.90;;;;;;10093633;28;20493;-71
2023/09/17 10:37:04;;;;;;;9.55;3.72;;;24.70;99.90;;;;;;10088851;28;20029;-70
2023/09/17 10:41:57;;;;;;;3.63;2.83;;;24.80;99.90;;;;;;10096126;28;20017;-70
2023/09/17 10:46:49;;;;;;;3.28;2.20;;;24.90;99.90;;;;;;10074068;28;20037;-71
2023/09/17 10:51:44;;;;;;;4.15;1.85;;;25.00;99.90;;;;;;10078671;28;20026;-70
2023/09/17 10:56:35;;;;;;;3.10;2.20;;;25.20;99.90;;;;;;10092943;28;20041;-70
2023/09/17 11:01:32;;;;;;;6.45;3.03;;;25.20;99.90;;;;;;10085196;28;20045;-70
2023/09/17 11:06:24;;;;;;;5.78;2.72;;;25.20;99.90;;;;;;10085163;28;20037;-70
2023/09/17 11:11:16;;;;;;;6.07;2.72;;;25.20;99.90;;;;;;10096259;28;20264;-70
2023/09/17 11:16:08;;;;;;;5.05;2.58;;;25.30;99.90;;;;;;10089775;28;20029;-70
2023/09/17 11:21:07;;;;;;;4.22;2.13;;;25.40;99.90;;;;;;10092800;28;20028;-70
2023/09/17 11:25:58;;;;;;;5.45;2.28;;;25.60;99.90;;;;;;10106231;28;20020;-70
2023/09/17 11:31:02;;;;;;;7.03;2.53;;;25.60;99.90;;;;;;10100696;28;20055;-70
2023/09/17 11:35:54;;;;;;;14.07;5.97;;;25.60;99.90;;;;;;10088053;28;20013;-70
2023/09/17 11:40:45;;;;;;;5.82;3.00;;;25.80;99.90;;;;;;10094203;28;20025;-70
2023/09/17 11:45:38;;;;;;;4.28;2.33;;;25.80;99.90;;;;;;10084509;28;20088;-72
2023/09/17 11:50:29;;;;;;;4.43;2.35;;;25.90;99.90;;;;;;10100817;28;20029;-71
2023/09/17 11:55:23;;;;;;;3.65;1.92;;;26.00;99.90;;;;;;10101303;28;20025;-72
2023/09/17 12:00:27;;;;;;;4.40;2.30;;;26.10;99.90;;;;;;10098953;28;20132;-71
2023/09/17 12:05:22;;;;;;;3.72;1.90;;;26.20;99.90;;;;;;10100156;28;20294;-70
2023/09/17 12:10:14;;;;;;;5.10;2.95;;;26.20;99.90;;;;;;10092355;28;20029;-71
2023/09/17 12:15:09;;;;;;;3.97;1.63;;;26.30;99.90;;;;;;10090112;28;20032;-71
2023/09/17 12:20:12;;;;;;;2.67;1.85;;;26.40;99.90;;;;;;10075910;28;20021;-71
2023/09/17 12:25:10;;;;;;;3.78;1.92;;;26.50;99.90;;;;;;10086729;28;20116;-71
2023/09/17 12:30:08;;;;;;;2.65;1.58;;;26.80;99.90;;;;;;10098043;28;20025;-71
2023/09/17 12:34:59;;;;;;;3.28;1.75;;;26.90;99.90;;;;;;10088816;28;20072;-70
2023/09/17 12:39:50;;;;;;;2.17;1.55;;;26.90;99.90;;;;;;10093849;28;20167;-71
2023/09/17 12:44:41;;;;;;;2.65;1.50;;;27.10;99.80;;;;;;10085293;28;20072;-71
2023/09/17 12:49:33;;;;;;;3.83;1.48;;;27.00;99.50;;;;;;10086818;28;20033;-71
2023/09/17 12:54:24;;;;;;;1.70;1.38;;;27.20;99.30;;;;;;10079992;28;20567;-72
2023/09/17 12:59:14;;;;;;;2.97;1.10;;;27.50;98.90;;;;;;10093635;28;20034;-70
2023/09/17 13:04:06;;;;;;;2.38;1.48;;;27.60;98.40;;;;;;10092168;28;20068;-71
2023/09/17 13:08:57;;;;;;;4.18;2.03;;;27.80;98.20;;;;;;10091011;28;20032;-71
2023/09/17 13:13:49;;;;;;;4.82;1.55;;;27.80;97.90;;;;;;10092551;28;20100;-71
2023/09/17 13:18:40;;;;;;;2.90;1.95;;;28.00;97.60;;;;;;10085766;28;20086;-71
2023/09/17 13:23:31;;;;;;;2.80;1.02;;;28.00;97.40;;;;;;10084617;28;20441;-72
2023/09/17 13:28:25;;;;;;;4.93;1.40;;;28.20;97.10;;;;;;10089506;28;20037;-71
2023/09/17 13:33:16;;;;;;;3.65;1.23;;;28.30;96.80;;;;;;10091886;28;20123;-71
2023/09/17 13:38:11;;;;;;;3.88;1.40;;;28.40;96.70;;;;;;10091363;28;20068;-70
2023/09/17 13:43:04;;;;;;;3.20;1.30;;;28.60;96.40;;;;;;10089192;28;20056;-70
2023/09/17 13:47:54;;;;;;;2.75;1.58;;;28.70;96.20;;;;;;10086546;28;20025;-72
2023/09/17 13:52:45;;;;;;;3.90;1.58;;;28.70;96.00;;;;;;10080103;28;20057;-70
2023/09/17 13:57:36;;;;;;;2.25;1.23;;;28.90;95.80;;;;;;10089858;28;20037;-73
2023/09/17 14:02:26;;;;;;;2.10;1.20;;;28.90;95.60;;;;;;10088075;28;20072;-71
2023/09/17 14:07:17;;;;;;;2.97;1.23;;;28.90;95.40;;;;;;10080488;28;20048;-71
2023/09/17 14:12:08;;;;;;;2.50;2.17;;;28.90;95.20;;;;;;10102619;28;20025;-72
2023/09/17 14:17:00;;;;;;;2.92;1.65;;;29.00;95.10;;;;;;10072829;28;20053;-71
2023/09/17 14:21:51;;;;;;;3.58;1.48;;;29.10;95.00;;;;;;10083222;28;20024;-71
2023/09/17 14:26:42;;;;;;;3.85;1.75;;;29.10;95.00;;;;;;10084713;28;20075;-71
2023/09/17 14:31:36;;;;;;;3.15;1.40;;;29.20;95.00;;;;;;10094722;28;20028;-71
2023/09/17 14:36:27;;;;;;;4.63;1.75;;;29.20;94.90;;;;;;10077887;28;20124;-69
2023/09/17 14:41:18;;;;;;;4.53;1.63;;;29.20;95.00;;;;;;10082800;28;20117;-71
2023/09/17 14:46:08;;;;;;;3.33;2.10;;;29.20;95.00;;;;;;10076235;28;20041;-69
2023/09/17 14:50:59;;;;;;;6.82;3.13;;;29.20;94.90;;;;;;10074156;28;20406;-70
2023/09/17 14:55:51;;;;;;;4.47;2.17;;;29.20;94.90;;;;;;10082817;28;20021;-72
2023/09/17 15:00:45;;;;;;;2.08;1.48;;;29.30;94.90;;;;;;10089563;28;20037;-70
2023/09/17 15:05:39;;;;;;;4.03;1.73;;;29.40;94.90;;;;;;10088225;28;20033;-69
2023/09/17 15:10:29;;;;;;;2.97;1.50;;;29.70;94.90;;;;;;10078953;28;20221;-70
2023/09/17 15:15:21;;;;;;;3.22;1.55;;;30.10;94.80;;;;;;10084094;28;20152;-71
2023/09/17 15:20:11;;;;;;;2.38;1.30;;;30.50;94.60;;;;;;10078909;28;20028;-71
2023/09/17 15:25:03;;;;;;;4.35;2.20;;;30.80;94.40;;;;;;10081035;28;20044;-71
2023/09/17 15:29:53;;;;;;;3.17;1.90;;;30.90;94.20;;;;;;10091546;28;20056;-70
2023/09/17 15:34:44;;;;;;;3.88;1.75;;;31.10;94.10;;;;;;10088809;28;20033;-71
2023/09/17 15:39:34;;;;;;;5.75;1.45;;;31.20;94.00;;;;;;10089363;28;20036;-71
2023/09/17 15:44:25;;;;;;;2.22;1.70;;;31.30;93.80;;;;;;10077992;28;20029;-71
2023/09/17 15:49:16;;;;;;;2.25;1.55;;;31.40;93.70;;;;;;10085233;28;20068;-71
2023/09/17 15:54:07;;;;;;;3.72;2.22;;;31.30;93.60;;;;;;10098510;28;20056;-71
2023/09/17 15:58:57;;;;;;;4.97;2.20;;;31.30;93.60;;;;;;10100998;28;20064;-72
2023/09/17 16:03:49;;;;;;;5.25;2.00;;;31.40;93.50;;;;;;10100061;28;20072;-71
2023/09/17 16:08:39;;;;;;;5.22;2.40;;;31.60;93.40;;;;;;10093514;28;20098;-71
2023/09/17 16:13:30;;;;;;;7.95;3.00;;;31.70;93.40;;;;;;10080182;28;20025;-70
2023/09/17 16:18:21;;;;;;;4.82;1.77;;;31.60;93.30;;;;;;10105056;28;20139;-72
2023/09/17 16:23:12;;;;;;;5.32;1.88;;;31.50;93.30;;;;;;10078378;28;20530;-71
2023/09/17 16:28:05;;;;;;;2.78;2.08;;;31.50;93.30;;;;;;10095278;28;20029;-71
2023/09/17 16:32:56;;;;;;;4.97;2.22;;;31.30;93.20;;;;;;10097156;28;20118;-71
2023/09/17 16:37:47;;;;;;;5.22;2.05;;;31.30;93.20;;;;;;10089601;28;20079;-70
2023/09/17 16:42:38;;;;;;;4.30;2.20;;;31.40;93.10;;;;;;10089902;28;20028;-71
2023/09/17 16:47:28;;;;;;;4.65;1.88;;;31.40;93.10;;;;;;10088925;28;20040;-70
2023/09/17 16:52:19;;;;;;;4.15;2.17;;;31.30;93.10;;;;;;10089473;28;20035;-71
2023/09/17 16:57:10;;;;;;;5.53;1.77;;;31.30;93.10;;;;;;10099330;28;20033;-71
2023/09/17 17:02:01;;;;;;;6.05;2.40;;;31.20;93.10;;;;;;10097456;28;20041;-71
2023/09/17 17:06:52;;;;;;;4.47;2.15;;;31.00;93.50;;;;;;10097300;28;20120;-71
2023/09/17 17:11:42;;;;;;;4.88;3.05;;;30.80;93.30;;;;;;10089506;28;20522;-71
2023/09/17 17:16:34;;;;;;;3.78;2.60;;;30.70;93.40;;;;;;10079126;28;20029;-71
2023/09/17 17:21:24;;;;;;;7.57;2.92;;;30.60;93.50;;;;;;10084620;28;20025;-70
2023/09/17 17:26:24;;;;;;;6.32;2.78;;;30.60;93.60;;;;;;10084208;28;20395;-71
2023/09/17 17:31:15;;;;;;;6.18;2.80;;;30.60;93.70;;;;;;10088588;28;20025;-71
2023/09/17 17:36:15;;;;;;;4.68;2.67;;;30.40;93.90;;;;;;10088893;28;20386;-71
2023/09/17 17:41:08;;;;;;;12.95;4.22;;;30.30;94.00;;;;;;10091568;28;20021;-71
2023/09/17 17:45:59;;;;;;;6.60;3.75;;;30.30;94.10;;;;;;10088585;28;20410;-71
2023/09/17 17:50:49;;;;;;;11.98;4.20;;;30.20;94.20;;;;;;10085974;28;20115;-71
2023/09/17 17:55:43;;;;;;;5.15;2.78;;;30.20;94.30;;;;;;10082517;28;20169;-71
2023/09/17 18:00:34;;;;;;;;;;;30.10;94.30;;;;;;10093506;28;20013;-71
2023/09/17 18:05:25;;;;;;;6.60;2.78;;;30.10;94.50;;;;;;10091218;28;20394;-71
2023/09/17 18:10:16;;;;;;;6.18;3.08;;;30.00;94.50;;;;;;10079737;28;20029;-71
2023/09/17 18:15:08;;;;;;;7.45;3.45;;;30.00;94.60;;;;;;10087060;28;20108;-71
2023/09/17 18:20:00;;;;;;;5.43;2.85;;;29.90;94.70;;;;;;10074626;28;20014;-72
2023/09/17 18:24:51;;;;;;;5.88;3.33;;;29.90;94.70;;;;;;10099737;28;20399;-70
2023/09/17 18:29:42;;;;;;;7.18;3.33;;;29.90;94.80;;;;;;10092482;28;20391;-70
2023/09/17 18:34:33;;;;;;;7.72;3.88;;;29.80;94.90;;;;;;10090854;28;20461;-71
2023/09/17 18:39:23;;;;;;;9.18;3.55;;;29.80;95.00;;;;;;10079220;28;20021;-69
2023/09/17 18:44:15;;;;;;;10.07;4.70;;;29.80;95.10;;;;;;10095026;28;20021;-71
2023/09/17 18:49:06;;;;;;;13.18;5.28;;;29.80;95.10;;;;;;10083478;28;20036;-71
2023/09/17 18:53:56;;;;;;;11.35;4.88;;;29.60;95.20;;;;;;10095310;28;20029;-71
2023/09/17 18:58:48;;;;;;;8.82;5.65;;;29.60;95.30;;;;;;10095907;28;20033;-71
2023/09/17 19:03:38;;;;;;;9.80;5.03;;;29.60;95.30;;;;;;10094358;28;20052;-71
2023/09/17 19:08:29;;;;;;;9.50;5.25;;;29.60;95.40;;;;;;10082532;28;20068;-72
2023/09/17 19:13:20;;;;;;;11.02;4.95;;;29.50;95.50;;;;;;10082737;28;20187;-72
2023/09/17 19:18:11;;;;;;;12.85;5.40;;;29.50;95.60;;;;;;10083858;28;20033;-71
2023/09/17 19:23:01;;;;;;;8.10;4.57;;;29.40;95.60;;;;;;10079042;28;20036;-72
2023/09/17 19:27:52;;;;;;;10.60;5.15;;;29.30;95.60;;;;;;10086895;28;20234;-72
2023/09/17 19:32:43;;;;;;;10.43;4.53;;;29.30;95.70;;;;;;10088188;28;20445;-72
2023/09/17 19:37:34;;;;;;;10.88;5.05;;;29.30;95.70;;;;;;10087920;28;20052;-73
2023/09/17 19:42:27;;;;;;;10.18;5.45;;;29.30;95.80;;;;;;10094209;28;20052;-72
2023/09/17 19:47:18;;;;;;;10.30;5.13;;;29.10;95.90;;;;;;10091237;28;20459;-74
2023/09/17 19:52:09;;;;;;;9.50;4.28;;;29.20;96.00;;;;;;10081768;28;20148;-71
2023/09/17 19:56:59;;;;;;;10.70;4.22;;;29.00;96.10;;;;;;10085446;28;20025;-72
2023/09/17 20:01:50;;;;;;;9.20;3.72;;;29.00;96.20;;;;;;10098854;28;20446;-70
2023/09/17 20:06:41;;;;;;;7.20;3.50;;;29.00;96.20;;;;;;10089064;28;20041;-72
2023/09/17 20:11:31;;;;;;;7.25;3.38;;;29.00;96.30;;;;;;10080863;28;20029;-72
2023/09/17 20:16:22;;;;;;;8.52;3.90;;;28.90;96.40;;;;;;10089599;28;20036;-73
2023/09/17 20:21:13;;;;;;;6.53;3.20;;;28.80;96.50;;;;;;10084286;28;20025;-74
2023/09/17 20:26:11;;;;;;;7.55;3.08;;;28.80;96.60;;;;;;10096093;28;20066;-72
2023/09/17 20:31:02;;;;;;;7.65;3.15;;;28.70;96.70;;;;;;10086308;28;20037;-75
2023/09/17 20:35:53;;;;;;;8.57;3.95;;;28.70;96.70;;;;;;10078328;28;20029;-73
2023/09/17 20:40:44;;;;;;;6.43;3.30;;;28.70;96.80;;;;;;10097474;28;20426;-73
2023/09/17 20:45:35;;;;;;;7.85;4.03;;;28.60;96.90;;;;;;10095542;28;20033;-71
2023/09/17 20:50:26;;;;;;;6.60;3.28;;;28.50;97.10;;;;;;10095404;28;20075;-72
2023/09/17 20:55:17;;;;;;;8.57;4.93;;;28.30;97.40;;;;;;10094377;28;20021;-72
2023/09/17 21:00:10;;;;;;;9.82;4.90;;;28.20;97.60;;;;;;10097218;28;20123;-72
2023/09/17 21:05:02;;;;;;;9.38;4.80;;;28.10;97.80;;;;;;10095520;28;20064;-72
2023/09/17 21:09:53;;;;;;;8.48;4.55;;;28.10;97.80;;;;;;10082686;28;20036;-71
2023/09/17 21:14:44;;;;;;;8.90;4.18;;;28.20;97.90;;;;;;10095081;28;20450;-71
2023/09/17 21:19:34;;;;;;;4.95;3.55;;;28.00;97.90;;;;;;10077816;28;20541;-71
2023/09/17 21:24:25;;;;;;;7.43;3.90;;;28.00;97.90;;;;;;10087949;28;20051;-70
2023/09/17 21:29:15;;;;;;;7.80;2.60;;;27.90;98.00;;;;;;10094438;28;20041;-71
2023/09/17 21:34:06;;;;;;;10.52;2.90;;;27.90;98.00;;;;;;10092357;28;20045;-71
2023/09/17 21:38:57;;;;;;;8.50;2.83;;;27.80;97.90;;;;;;10078749;28;20448;-70
2023/09/17 21:43:47;;;;;;;10.57;3.90;;;27.80;97.90;;;;;;10081444;28;20090;-70
2023/09/17 21:48:38;;;;;;;4.75;2.95;;;27.90;97.70;;;;;;10084729;28;20036;-70
2023/09/17 21:53:28;;;;;;;6.38;2.92;;;27.90;97.60;;;;;;10079643;28;20035;-70
2023/09/17 21:58:19;;;;;;;4.18;3.00;;;27.90;97.50;;;;;;10093617;28;20495;-71
2023/09/17 22:03:10;;;;;;;5.72;4.15;;;27.80;97.50;;;;;;10089266;28;20456;-70
2023/09/17 22:08:00;;;;;;;5.78;3.33;;;27.60;98.10;;;;;;10084161;28;20040;-72
2023/09/17 22:12:51;;;;;;;7.70;4.20;;;27.50;98.00;;;;;;10079855;28;20275;-71
2023/09/17 22:17:42;;;;;;;7.22;3.42;;;27.40;98.10;;;;;;10084457;28;20110;-71
2023/09/17 22:22:33;;;;;;;7.68;3.60;;;27.40;98.00;;;;;;10076870;28;20029;-71
2023/09/17 22:27:24;;;;;;;11.20;5.53;;;27.20;98.20;;;;;;10091409;28;20037;-70
2023/09/17 22:32:15;;;;;;;7.68;3.20;;;27.30;98.10;;;;;;10083098;28;20422;-71
2023/09/17 22:37:06;;;;;;;8.00;3.47;;;27.10;98.40;;;;;;10082777;28;20048;-71
2023/09/17 22:41:56;;;;;;;6.18;4.43;;;27.10;98.50;;;;;;10087495;28;21012;-72
2023/09/17 22:46:47;;;;;;;4.95;3.55;;;26.80;98.70;;;;;;10078888;28;20044;-69
2023/09/17 22:51:37;;;;;;;6.75;3.42;;;26.90;98.60;;;;;;10081437;28;20095;-70
2023/09/17 22:56:28;;;;;;;5.13;2.47;;;26.70;98.70;;;;;;10083341;28;20029;-71
2023/09/17 23:01:19;;;;;;;4.05;2.80;;;26.60;98.80;;;;;;10088355;28;20034;-70
2023/09/17 23:06:11;;;;;;;6.97;3.78;;;26.80;98.50;;;;;;10095574;28;20040;-70
2023/09/17 23:11:04;;;;;;;8.23;2.85;;;26.80;98.60;;;;;;10091438;28;20882;-72
2023/09/17 23:15:55;;;;;;;5.30;3.45;;;26.80;98.70;;;;;;10088873;28;20124;-72
2023/09/17 23:20:46;;;;;;;7.95;2.88;;;27.00;98.40;;;;;;10082495;28;20459;-72
2023/09/17 23:25:37;;;;;;;6.22;2.97;;;26.80;98.50;;;;;;10081118;28;20042;-70
2023/09/17 23:30:27;;;;;;;4.35;2.25;;;26.70;98.70;;;;;;10098175;28;20499;-72
2023/09/17 23:35:23;;;;;;;4.95;2.55;;;26.70;98.70;;;;;;10097079;28;20049;-71
2023/09/17 23:40:14;;;;;;;4.35;3.40;;;26.70;98.60;;;;;;10091808;28;20061;-71
2023/09/17 23:45:08;;;;;;;7.25;2.38;;;26.80;98.50;;;;;;10086135;28;20434;-71
2023/09/17 23:49:59;;;;;;;;;;;26.80;98.30;;;;;;10085372;28;20041;-72
2023/09/17 23:54:50;;;;;;;5.47;3.08;;;26.90;98.30;;;;;;10081582;28;20019;-71
2023/09/17 23:59:40;;;;;;;3.90;2.50;;;26.80;98.30;;;;;;10095296;28;20220;-71
